Tiempo atmosférico en la estación meteorológica de Xàtiva, València/Valencia (88 m.)



Fecha
DESCASC
Temp. máxima en grados centígrados (hora)
DESCASC
Temp. mínima en grados centígrados (hora)
DESCASC
Temp. media en grados centígrados
DESCASC
Racha de viento máxima en m/sg (hora)
DESCASC
Velocidad máxima media en intervalos de 10 minutos(hora)
DESCASC
Precipitaciones diarias en mm
DESCASC
Precipitaciones de 00:00 a 06:00 en mm
DESCASC
Precipitaciones de 06:00 a 12:00 en mm
DESCASC
Precipitaciones de 12:00 a 18:00 en mm
DESCASC
Precipitaciones de 18:00 a 24:00 en mm
DESCASC
19-12-2019 16.9 (23:30) 5.8 (01:50) 11.3 7.78 (19:30) 3.89 (19:20) -- -- -- -- --
20-12-2019 21.8 (12:00) 15.7 (00:00) 18.7 16.67 (12:10) 8.61 (04:40) -- -- -- -- --
21-12-2019 25.8 (14:00) 16.2 (08:00) 21 29.72 (23:50) 16.11 (22:50) -- -- -- -- --
22-12-2019 21.7 (14:50) 16.3 (08:40) 19 24.44 (01:20) 11.67 (00:10) -- -- -- -- --
23-12-2019 21.8 (15:40) 11.3 (00:00) 16.5 13.06 (00:30) 6.94 (01:20) -- -- -- -- --
24-12-2019 25.6 (15:40) 8.8 (06:00) 17.2 8.61 (09:30) 4.44 (09:20) -- -- -- -- --
25-12-2019 22.6 (16:40) 6.8 (00:00) 14.7 6.11 (15:40) 3.33 (01:00) -- -- -- -- --
26-12-2019 25.5 (15:00) 6.1 (00:00) 15.8 7.5 (17:10) 4.44 (17:00) -- -- -- -- --
27-12-2019 22.4 (16:20) 5.3 (00:00) 13.8 4.17 (02:10) 2.78 (02:20) -- -- -- -- --
28-12-2019 16.1 (15:10) 3.7 (00:00) 9.9 4.44 (16:10) 2.5 (12:30) -- -- -- -- --
29-12-2019 16.9 (15:40) 5.7 (00:00) 11.3 7.22 (09:10) 3.33 (09:10) -- -- -- -- --
30-12-2019 15.6 (15:30) 6.1 (00:00) 10.9 4.17 (09:10) 2.5 (09:00) -- -- -- -- --
31-12-2019 16.4 (16:10) 2.7 (00:00) 9.5 4.44 (10:10) 2.78 (09:20) -- -- -- -- --
01-01-2020 15.3 (14:40) 3 (00:00) 9.2 4.72 (10:00) 3.06 (23:40) -- -- -- -- --
02-01-2020 15.9 (16:00) 1.5 (00:00) 8.7 5.56 (18:10) 3.06 (18:10) -- -- -- -- --
03-01-2020 16.3 (14:40) 1.7 (00:00) 9 6.11 (15:30) 3.89 (15:30) -- -- -- -- --
04-01-2020 16.8 (14:30) 3.4 (00:00) 10.1 5.83 (07:30) 3.61 (07:20) -- -- -- -- --
05-01-2020 18.7 (16:20) 2.5 (00:00) 10.6 5 (20:50) 3.06 (20:50) -- -- -- -- --
06-01-2020 17.5 (16:00) 5.7 (00:00) 11.6 3.89 (02:30) 2.78 (17:20) -- -- -- -- --
07-01-2020 18.4 (15:50) 2.2 (00:00) 10.3 5 (02:30) 3.06 (01:00) -- -- -- -- --
08-01-2020 14.4 (13:40) 2.8 (00:00) 8.6 5.83 (14:30) 3.89 (14:30) -- -- -- -- --
09-01-2020 17.5 (15:20) 3.9 (00:00) 10.7 6.11 (10:00) 3.61 (10:00) -- -- -- -- --
10-01-2020 15.8 (13:40) 4.8 (00:00) 10.3 11.67 (16:40) 6.67 (16:30) -- -- -- -- --
11-01-2020 16.4 (15:30) 2.6 (00:00) 9.5 6.11 (20:50) 3.33 (20:50) -- -- -- -- --
12-01-2020 16.5 (16:10) 0.4 (08:50) 8.5 5.28 (22:40) 3.89 (21:20) -- -- -- -- --
13-01-2020 19.6 (16:00) -0.8 (-00:0) 9.4 6.39 (14:10) 3.06 (20:40) -- -- -- -- --
14-01-2020 19.5 (15:50) 2.4 (00:00) 11 6.94 (08:20) 4.17 (05:00) -- -- -- -- --
15-01-2020 20.4 (17:00) 5.3 (00:00) 12.8 7.5 (03:40) 4.72 (02:50) -- -- -- -- --
16-01-2020 20.5 (16:00) 6.2 (00:00) 13.3 5.83 (21:40) 3.61 (21:40) -- -- -- -- --
17-01-2020 18.7 (15:50) 6.3 (00:00) 12.5 16.67 (13:50) 9.44 (13:40) -- -- -- -- --

Gráficas

Temp. máximas Temp. mínimas Temp. medias Precipitaciones Rachas de viento máximas Velocidades máximas media en intervalos de 10 minutos

Datos horarios

Fecha y hora oficial Temperatura (ºC) Velocidad del viento (km/h) Dirección del viento Racha (km/h) Dirección de racha Precipitación (mm) Presión (hPa) Tendencia (hPa) Humedad (%)
2020-01-17 23:00:00 9.6 3 Sur 14 Sudoeste -- 1021.2 1.2 64
2020-01-17 22:00:00 10.3 9 Oeste 19 Oeste -- 1020.6 1.1 61
2020-01-17 21:00:00 11.4 10 Oeste 20 Sudoeste -- 1020.5 2.1 57
2020-01-17 20:00:00 11.6 5 Oeste 15 Oeste -- 1020 2 56
2020-01-17 19:00:00 15.2 9 Sudoeste 14 Sudoeste -- 1019.5 1.8 42
2020-01-17 18:00:00 16.2 9 Oeste 33 Oeste -- 1018.4 0.1 40
2020-01-17 17:00:00 17.6 18 Oeste 45 Oeste -- 1018 -0.7 37
2020-01-17 16:00:00 17.8 23 Oeste 43 Oeste -- 1017.7 -1.2 36
2020-01-17 15:00:00 18 19 Oeste 54 Noroeste -- 1018.3 -1.3 39
2020-01-17 14:00:00 18.3 28 Oeste 60 Oeste -- 1018.7 -1 36
2020-01-17 13:00:00 17.8 19 Noroeste 49 Oeste -- 1018.9 -0.3 40
2020-01-17 12:00:00 18 10 Oeste 24 Oeste -- 1019.6 1.4 37
2020-01-17 11:00:00 16.1 9 Sudoeste 27 Sudoeste -- 1019.7 1.5 33
2020-01-17 10:00:00 12.5 7 Sudeste 26 Sudoeste -- 1019.2 1.9 44
2020-01-17 09:00:00 11.2 19 Sudoeste 29 Sudoeste -- 1018.2 1.3 43
2020-01-17 08:00:00 8 8 Oeste 14 Oeste -- 1018.2 1.3 57
2020-01-17 07:00:00 10.1 6 Oeste 23 Sudoeste -- 1017.3 0.2 48
2020-01-17 06:00:00 6.5 5 Este 12 Sudoeste -- 1016.9 -0.2 66
2020-01-17 05:00:00 7.8 2 Este 18 Sudoeste -- 1016.9 -0.2 65
2020-01-17 04:00:00 8 10 Oeste 16 Oeste -- 1017.1 0.1 65
2020-01-17 03:00:00 7.8 3 Nordeste 18 Sudoeste -- 1017.1 -0.2 69
2020-01-17 02:00:00 10.7 14 Sudoeste 22 Sudoeste -- 1017.1 0.1 57
2020-01-17 01:00:00 9.9 8 Sudoeste 22 Sudoeste -- 1017 0.4 64
2020-01-17 00:00:00 11.2 10 Sudoeste 17 Sudoeste -- 1017.3 0.9 60
2020-01-16 23:00:00 8.8 5 Oeste 17 Oeste -- 1017 0.7 71
2020-01-16 22:00:00 10.4 10 Oeste 21 Oeste -- 1016.6 1 66
2020-01-16 21:00:00 10.3 5 Oeste 9 Sudoeste -- 1016.4 1.4 72
2020-01-16 20:00:00 12.3 5 Oeste 13 Sudoeste -- 1016.3 1.4 65
2020-01-16 19:00:00 14.2 5 Sudeste 10 Sudoeste -- 1015.6 0.6 60
2020-01-16 18:00:00 16.6 4 Sudeste 9 Sudeste -- 1015 -0.1 51
2020-01-16 17:00:00 18.9 5 Nordeste 9 Este -- 1014.9 -1 42
2020-01-16 16:00:00 20.4 3 Norte 8 Nordeste -- 1015 -2.1 38
2020-01-16 15:00:00 19.3 3 Nordeste 9 Nordeste -- 1015.1 -3 39
2020-01-16 14:00:00 18.4 3 Este 9 Sudeste -- 1015.9 -2.6 41
2020-01-16 13:00:00 17.2 4 Este 9 Este -- 1017.1 -1.4 45
2020-01-16 12:00:00 15.8 3 Sudeste 12 Oeste -- 1018.1 -0.1 49
2020-01-16 11:00:00 12.4 6 Sudoeste 15 Oeste -- 1018.5 0.7 57
2020-01-16 10:00:00 8.9 6 Sudoeste 12 Oeste -- 1018.5 1.1 70
2020-01-16 09:00:00 6.4 5 Oeste 13 Oeste -- 1018.2 1.2 78
2020-01-16 08:00:00 7.6 7 Sudoeste 16 Oeste -- 1017.8 0.8 72
2020-01-16 07:00:00 7.3 8 Oeste 18 Sudoeste -- 1017.4 0.3 73
2020-01-16 06:00:00 6.5 3 Sudoeste 16 Oeste -- 1017 0.2 76
2020-01-16 05:00:00 7.5 9 Oeste 17 Oeste -- 1017 0.2 75
2020-01-16 04:00:00 7.9 8 Oeste 14 Oeste -- 1017.1 0.3 73
2020-01-16 03:00:00 7.1 7 Oeste 15 Oeste -- 1016.8 -0.3 75
2020-01-16 02:00:00 7.7 5 Oeste 17 Oeste -- 1016.8 -0.2 71
2020-01-16 01:00:00 8.1 5 Oeste 17 Sudoeste -- 1016.8 0.2 69
2020-01-16 00:00:00 8.4 9 Oeste 19 Oeste -- 1017.1 0.6 68
2020-01-15 23:00:00 9.3 9 Oeste 22 Sudoeste -- 1017 0.9 64
2020-01-15 22:00:00 9.7 10 Oeste 21 Sudoeste -- 1016.6 0.9 63
2020-01-15 21:00:00 11.6 13 Sudoeste 21 Sudoeste -- 1016.5 1.7 55
2020-01-15 20:00:00 12.9 10 Sudoeste 18 Sudoeste -- 1016.1 2 51
2020-01-15 19:00:00 13.7 6 Oeste 13 Oeste -- 1015.7 1.6 48
2020-01-15 18:00:00 16.3 8 Oeste 15 Oeste -- 1014.8 1 39
2020-01-15 17:00:00 20.4 2 Oeste 8 Oeste -- 1014.1 -0.3 28
2020-01-15 16:00:00 19.5 3 Noroeste 14 Sudoeste -- 1014.1 -0.9 33
2020-01-15 15:00:00 18.5 7 Sudoeste 18 Sudoeste -- 1013.8 -2 33
2020-01-15 14:00:00 17.9 10 Sudoeste 20 Sudoeste -- 1014.4 -1.6 36
2020-01-15 13:00:00 16.4 11 Sudoeste 20 Sudoeste -- 1015 -0.3 40
2020-01-15 12:00:00 14.2 12 Sudoeste 22 Sudoeste -- 1015.8 1.1 46
2020-01-15 11:00:00 12 11 Sudoeste 19 Sudoeste -- 1016 1.6 51
2020-01-15 10:00:00 7.9 9 Oeste 17 Oeste -- 1015.3 1.5 65
2020-01-15 09:00:00 5.4 9 Oeste 17 Oeste -- 1014.7 1.3 73
2020-01-15 08:00:00 6 13 Oeste 19 Oeste -- 1014.4 1.3 69
2020-01-15 07:00:00 5.5 8 Oeste 17 Sudoeste -- 1013.8 0.7 70
2020-01-15 06:00:00 6.8 11 Sudoeste 20 Oeste -- 1013.4 0.5 64
2020-01-15 05:00:00 6.8 6 Oeste 23 Oeste -- 1013.1 0.2 65
2020-01-15 04:00:00 6.6 5 Norte 27 Oeste -- 1013.1 0.3 64
2020-01-15 03:00:00 8.2 17 Sudoeste 27 Sudoeste -- 1012.9 0.1 58
2020-01-15 02:00:00 8.5 14 Sudoeste 24 Oeste -- 1012.9 0.3 57
2020-01-15 01:00:00 8.6 10 Sudoeste 24 Sudoeste -- 1012.8 0.3 56
2020-01-15 00:00:00 5.6 8 Oeste 17 Sudoeste -- 1012.8 0.8 67
2020-01-14 23:00:00 5.6 9 Oeste 15 Oeste -- 1012.6 0.9 68
2020-01-14 22:00:00 6.7 3 Oeste 23 Sudoeste -- 1012.5 1.4 63
2020-01-14 21:00:00 6.9 6 Oeste 16 Sudoeste -- 1012 1.8 63
2020-01-14 20:00:00 9.2 10 Sudoeste 15 Sudoeste -- 1011.7 1.8 53
2020-01-14 19:00:00 11.1 7 Sudoeste 11 Sudoeste -- 1011.1 1.4 50
2020-01-14 18:00:00 14 2 Nordeste 10 Nordeste -- 1010.2 0.3 41
2020-01-14 17:00:00 16.7 7 Nordeste 14 Nordeste -- 1009.9 -0.5 32
2020-01-14 16:00:00 18.7 5 Norte 12 Sudoeste -- 1009.7 -1.8 28
2020-01-14 15:00:00 19.1 3 Sur 19 Sur -- 1009.9 -2.6 23
2020-01-14 14:00:00 17.4 6 Sudoeste 15 Sudoeste -- 1010.4 -2.6 27
2020-01-14 13:00:00 15.7 10 Sudoeste 20 Sudoeste -- 1011.5 -1.3 30
2020-01-14 12:00:00 14.1 9 Sudoeste 22 Sur -- 1012.5 0.1 34
2020-01-14 11:00:00 11.3 12 Sudoeste 21 Sudoeste -- 1013 0.9 43
2020-01-14 10:00:00 8.5 11 Sudoeste 22 Sudoeste -- 1012.8 0.9 53
2020-01-14 09:00:00 5.8 6 Oeste 25 Oeste -- 1012.4 0.9 66
2020-01-14 08:00:00 2.9 6 Oeste 15 Sudoeste -- 1012.1 0.6 78
2020-01-14 07:00:00 3.8 6 Oeste 12 Sudoeste -- 1011.9 0.4 73
2020-01-14 06:00:00 6.5 7 Oeste 24 Sudoeste -- 1011.5 -0.2 61
2020-01-14 05:00:00 7.8 15 Sudoeste 24 Sudoeste -- 1011.5 -0.5 56
2020-01-14 04:00:00 6.9 8 Oeste 24 Sudoeste -- 1011.5 -0.4 59
2020-01-14 03:00:00 4.5 3 Sudoeste 22 Sudoeste -- 1011.7 -0.5 69
2020-01-14 02:00:00 3.6 3 Este 14 Sudoeste -- 1012 -0.3 73
2020-01-14 01:00:00 4 8 Oeste 13 Oeste -- 1011.9 -0.3 70
2020-01-14 00:00:00 4.7 3 Norte 9 Sudoeste -- 1012.2 -0.1 69
2020-01-13 23:00:00 5.5 4 Noroeste 9 Sudoeste -- 1012.3 0 67
2020-01-13 22:00:00 7.3 5 Oeste 15 Oeste -- 1012.2 0.1 62
2020-01-13 21:00:00 8.2 9 Oeste 17 Oeste -- 1012.3 0.6 56
2020-01-13 20:00:00 8.9 5 Oeste 13 Sudoeste -- 1012.3 1 56
2020-01-13 19:00:00 12.7 5 Sudoeste 11 Oeste -- 1012.1 1 36
2020-01-13 18:00:00 15 4 Sudoeste 15 Oeste -- 1011.7 -0.1 30
2020-01-13 17:00:00 17 5 Noroeste 14 Noroeste -- 1011.3 -1.3 31
2020-01-13 16:00:00 19.6 4 Noroeste 13 Oeste -- 1011.1 -2.8 26
2020-01-13 15:00:00 18.7 4 Noroeste 23 Sudoeste -- 1011.8 -3.7 30
2020-01-13 14:00:00 18.2 10 Sudoeste 20 Oeste -- 1012.6 -3.8 25
2020-01-13 13:00:00 16.1 8 Este 14 Sudeste -- 1013.9 -2.4 34
2020-01-13 12:00:00 13.6 5 Este 18 Sudoeste -- 1015.5 -0.9 40
2020-01-13 11:00:00 8.1 3 Este 5 Este -- 1016.4 0.1 59
2020-01-13 10:00:00 4.2 3 Noroeste 12 Sudoeste -- 1016.3 -0.1 70
2020-01-13 09:00:00 0.1 6 Oeste 10 Oeste -- 1016.4 -0.1 81
2020-01-13 08:00:00 -0.4 4 Oeste 7 Oeste -- 1016.3 -0.6 81
2020-01-13 07:00:00 0.1 3 Oeste 6 Oeste -- 1016.4 -1.2 80
2020-01-13 06:00:00 0.6 4 Sudoeste 9 Sudoeste -- 1016.5 -1.6 81
2020-01-13 05:00:00 0.5 4 Sudoeste 6 Sudoeste -- 1016.9 -1.3 81
2020-01-13 04:00:00 0.6 4 Oeste 10 Noroeste -- 1017.6 -1.6 82
2020-01-13 03:00:00 0.7 2 Sudoeste 7 Oeste -- 1018.1 -1.7 79
2020-01-13 02:00:00 2.4 3 Oeste 10 Sudoeste -- 1018.2 -1.7 72
2020-01-13 01:00:00 3 7 Sudoeste 15 Oeste -- 1019.2 -0.7 69
2020-01-13 00:00:00 3.3 9 Sudoeste 15 Oeste -- 1019.8 0 69
2020-01-12 23:00:00 3.6 8 Oeste 19 Sudoeste -- 1019.9 0.5 69
2020-01-12 22:00:00 4.3 9 Sudoeste 19 Sudoeste -- 1019.9 1 68
2020-01-12 21:00:00 4.5 8 Oeste 15 Oeste -- 1019.8 1.5 70
2020-01-12 20:00:00 5.7 8 Sudoeste 12 Oeste -- 1019.4 1.6 65
2020-01-12 19:00:00 8.5 4 Sur 8 Oeste -- 1018.9 1 55
2020-01-12 18:00:00 11.8 3 Nordeste 9 Nordeste -- 1018.3 0.4 45
2020-01-12 17:00:00 15.9 3 Norte 8 Este -- 1017.8 -0.6 28
2020-01-12 16:00:00 16 3 Nordeste 13 Nordeste -- 1017.9 -1.5 24
2020-01-12 15:00:00 15.1 6 Nordeste 12 Este -- 1017.9 -2.4 30
2020-01-12 14:00:00 15 4 Este 9 Sudeste -- 1018.4 -2.2 32
2020-01-12 13:00:00 13.6 3 Este 8 Este -- 1019.4 -0.5 38
2020-01-12 12:00:00 11.7 2 Sudoeste 9 Sudeste -- 1020.3 0.7 41
2020-01-12 11:00:00 7.9 0 Calma 8 Este -- 1020.6 1.1 63
2020-01-12 10:00:00 4.1 4 Oeste 10 Sudoeste -- 1019.9 0.7 76
2020-01-12 09:00:00 0.9 0 Calma 11 Oeste -- 1019.6 0.7 87
2020-01-12 08:00:00 0.9 8 Oeste 11 Oeste -- 1019.5 0.4 85
2020-01-12 07:00:00 1.1 5 Sudoeste 10 Oeste -- 1019.2 -0.3 85
2020-01-12 06:00:00 1.3 5 Oeste 10 Oeste -- 1018.9 -0.7 85
2020-01-12 05:00:00 2.1 6 Oeste 12 Oeste -- 1019.1 -0.4 84
2020-01-12 04:00:00 2.7 6 Oeste 12 Oeste -- 1019.5 -0.3 82
2020-01-12 03:00:00 3.2 9 Oeste 16 Oeste -- 1019.6 -0.4 81
2020-01-12 02:00:00 2.8 6 Oeste 14 Oeste -- 1019.5 -0.3 83
2020-01-12 01:00:00 3.2 4 Oeste 8 Oeste -- 1019.8 0.1 83
2020-01-12 00:00:00 3.8 4 Oeste 10 Sur -- 1020 0.5 81
2020-01-11 23:00:00 5.1 5 Oeste 12 Sudoeste -- 1019.8 0.4 76
2020-01-11 22:00:00 6.9 8 Sudoeste 18 Sudoeste -- 1019.7 0.6 70
2020-01-11 21:00:00 6.8 9 Oeste 22 Oeste -- 1019.5 0.9 73
2020-01-11 20:00:00 7.7 6 Oeste 11 Oeste -- 1019.4 0.8 72
2020-01-11 19:00:00 9.4 8 Oeste 12 Oeste -- 1019.1 0.3 65
2020-01-11 18:00:00 12.7 2 Sur 10 Sudeste -- 1018.6 -0.2 49
2020-01-11 17:00:00 15.8 4 Sudeste 10 Sudeste -- 1018.6 -0.9 41
2020-01-11 16:00:00 15.9 4 Nordeste 9 Este -- 1018.8 -1.8 37
2020-01-11 15:00:00 15.5 3 Norte 11 Este -- 1018.8 -2.5 42
2020-01-11 14:00:00 15.5 3 Sudeste 11 Sur -- 1019.5 -2.2 42
2020-01-11 13:00:00 14.7 4 Sudeste 9 Sudeste -- 1020.6 -0.5 46
2020-01-11 12:00:00 12.4 3 Sudoeste 13 Sudoeste -- 1021.3 0.8 50
2020-01-11 11:00:00 9.5 6 Oeste 17 Oeste -- 1021.7 1.6 65
2020-01-11 10:00:00 5.6 9 Oeste 19 Sudoeste -- 1021.1 1.5 80
2020-01-11 09:00:00 3.2 9 Oeste 15 Oeste -- 1020.5 1.4 91
2020-01-11 08:00:00 2.7 8 Oeste 12 Sudoeste -- 1020.1 1.3 91
2020-01-11 07:00:00 3.2 8 Oeste 12 Oeste -- 1019.6 0.9 90
2020-01-11 06:00:00 3.9 4 Noroeste 11 Sudoeste -- 1019.1 0.8 87
2020-01-11 05:00:00 5.4 7 Sudoeste 11 Sudoeste -- 1018.8 1.1 84
2020-01-11 04:00:00 6.3 9 Oeste 13 Oeste -- 1018.7 0.5 86
2020-01-11 03:00:00 6.8 8 Sudoeste 11 Oeste -- 1018.3 -0.2 86
2020-01-11 02:00:00 8.3 2 Norte 8 Sur -- 1017.7 -0.2 84
2020-01-11 01:00:00 9.5 5 Sudoeste 9 Oeste -- 1018.2 0.4 79
2020-01-11 00:00:00 10.3 6 Oeste 11 Sudoeste -- 1018.5 1.1 73
2020-01-10 23:00:00 10.1 6 Oeste 10 Oeste -- 1017.9 0.6 74
2020-01-10 22:00:00 10.1 5 Oeste 16 Nordeste -- 1017.8 1.1 74
2020-01-10 21:00:00 10.5 13 Nordeste 31 Nordeste -- 1017.4 1.6 74
2020-01-10 20:00:00 10.2 8 Nordeste 16 Nordeste -- 1017.3 1.7 78
2020-01-10 19:00:00 10.4 6 Noroeste 24 Nordeste -- 1016.7 2 75
2020-01-10 18:00:00 10.9 6 Norte 30 Nordeste -- 1015.8 1.8 73
2020-01-10 17:00:00 11.9 18 Nordeste 42 Nordeste -- 1015.6 1.4 62
2020-01-10 16:00:00 14.8 21 Nordeste 35 Nordeste -- 1014.7 0 41
2020-01-10 15:00:00 15.4 10 Nordeste 22 Nordeste -- 1014 -1.4 40
2020-01-10 14:00:00 15.1 7 Nordeste 18 Nordeste -- 1014.2 -1.3 44
2020-01-10 13:00:00 14.8 0 Calma 8 Sudoeste -- 1014.7 -0.4 50
2020-01-10 12:00:00 11.2 0 Calma 7 Nordeste -- 1015.4 0.7 70
2020-01-10 11:00:00 9.3 2 Norte 10 Sudoeste -- 1015.5 2.3 81
2020-01-10 10:00:00 8.6 5 Sudoeste 11 Oeste -- 1015.1 2.1 77
2020-01-10 09:00:00 5.6 6 Sudoeste 12 Oeste -- 1014.7 2.1 89
2020-01-10 08:00:00 5.5 6 Sudoeste 11 Sudoeste -- 1013.2 0.6 85
2020-01-10 07:00:00 6.1 3 Sur 9 Sudoeste -- 1013 0.4 85
2020-01-10 06:00:00 5.1 4 Oeste 8 Oeste -- 1012.6 -0.2 87
2020-01-10 05:00:00 6 3 Sudoeste 11 Sudoeste -- 1012.6 -0.2 82
2020-01-10 04:00:00 9 11 Sudoeste 18 Sudoeste -- 1012.6 -0.4 71
2020-01-10 03:00:00 8 7 Oeste 22 Sudoeste -- 1012.8 -1 77
2020-01-10 02:00:00 10.2 16 Sudoeste 30 Sudoeste -- 1012.8 -1.6 67
2020-01-10 01:00:00 10.1 14 Sudoeste 35 Sudoeste -- 1013 -0.5 70
2020-01-10 00:00:00 8.8 8 Oeste 19 Oeste -- 1013.8 -0.8 79
2020-01-09 23:00:00 8.8 10 Oeste 16 Oeste -- 1014.4 -0.7 80
2020-01-09 22:00:00 7.9 3 Sur 10 Sudoeste -- 1013.5 -0.8 85
2020-01-09 21:00:00 8.6 3 Oeste 9 Sudoeste -- 1014.6 0.8 81
2020-01-09 20:00:00 10.5 7 Sudoeste 12 Sudoeste -- 1015.1 1 76
2020-01-09 19:00:00 11.8 4 Oeste 11 Sudeste -- 1014.3 -0.1 69
2020-01-09 18:00:00 14.2 7 Sudeste 13 Sudeste -- 1013.8 -1.2 56
2020-01-09 17:00:00 16.2 8 Sudeste 14 Sudeste -- 1014.1 -1.7 49
2020-01-09 16:00:00 17.1 6 Este 13 Sudeste -- 1014.4 -2.5 50
2020-01-09 15:00:00 16.8 4 Sudeste 10 Oeste -- 1015 -3.1 47
2020-01-09 14:00:00 15.9 3 Sur 12 Sudeste -- 1015.8 -2.9 50
2020-01-09 13:00:00 14.4 3 Sur 9 Sudeste -- 1016.9 -1.5 54
2020-01-09 12:00:00 11.3 4 Este 17 Sudoeste -- 1018.1 -0.4 67
2020-01-09 11:00:00 9 8 Sur 21 Sudoeste -- 1018.7 0.3 71
2020-01-09 10:00:00 6.3 13 Sudoeste 22 Sudoeste -- 1018.4 -0.3 80
2020-01-09 09:00:00 4.4 8 Sudoeste 13 Oeste -- 1018.5 -0.1 89
2020-01-09 08:00:00 4.8 9 Oeste 19 Sudoeste -- 1018.4 -0.5 87
2020-01-09 07:00:00 5.1 6 Sudoeste 16 Sudoeste -- 1018.7 -0.7 89
2020-01-09 06:00:00 5.3 11 Oeste 21 Oeste -- 1018.6 -1 89
2020-01-09 05:00:00 5.3 8 Oeste 15 Sudoeste -- 1018.9 -0.7 94
2020-01-09 04:00:00 3.9 4 Sudoeste 8 Oeste -- 1019.4 -0.5 94
2020-01-09 03:00:00 4.1 7 Sudoeste 10 Oeste -- 1019.6 -0.6 94
2020-01-09 02:00:00 5.5 4 Sudoeste 5 Sudoeste -- 1019.6 -0.7 94
2020-01-09 01:00:00 5.9 2 Sur 7 Oeste -- 1019.9 -0.5 93
2020-01-09 00:00:00 6.3 3 Sudoeste 6 Oeste -- 1020.2 -0.3 92
2020-01-08 23:00:00 6.7 3 Oeste 13 Oeste -- 1020.3 -0.1 91
2020-01-08 22:00:00 7.3 6 Oeste 9 Oeste -- 1020.4 0.3 90
2020-01-08 21:00:00 8.9 6 Sudoeste 9 Sudeste -- 1020.5 0.6 88
2020-01-08 20:00:00 10.7 4 Este 9 Sudeste -- 1020.4 0.6 88
2020-01-08 19:00:00 10.8 4 Este 8 Oeste -- 1020.1 0.5 86
2020-01-08 18:00:00 11.7 0 Calma 9 Noroeste -- 1019.9 0.1 84
2020-01-08 17:00:00 12 4 Norte 10 Norte -- 1019.8 -0.2 84
2020-01-08 16:00:00 12.4 5 Nordeste 15 Norte -- 1019.6 -1 80
2020-01-08 15:00:00 12.6 9 Norte 21 Norte -- 1019.8 -1.3 78
2020-01-08 14:00:00 14.2 10 Norte 20 Norte -- 1020 -0.9 69
2020-01-08 13:00:00 13 9 Nordeste 18 Nordeste -- 1020.6 0.5 55
2020-01-08 12:00:00 12.3 3 Nordeste 8 Nordeste -- 1021.1 2.2 53
2020-01-08 11:00:00 9.4 3 Nordeste 5 Este -- 1020.9 2.6 66
2020-01-08 10:00:00 5.8 3 Sudeste 6 Este -- 1020.1 2.4 78
2020-01-08 09:00:00 3.7 3 Oeste 10 Oeste -- 1018.9 1.7 83
2020-01-08 08:00:00 3.2 2 Sudeste 16 Oeste -- 1018.3 1 83
2020-01-08 07:00:00 3.6 8 Sudoeste 11 Sudoeste -- 1017.7 0.4 83
2020-01-08 06:00:00 3.3 3 Sudoeste 13 Sur -- 1017.2 -0.5 82
2020-01-08 05:00:00 3.5 5 Sur 10 Sudoeste -- 1017.3 -0.5 84
2020-01-08 04:00:00 3.6 6 Sudoeste 10 Sur -- 1017.3 -0.9 85
2020-01-08 03:00:00 3.6 3 Sudoeste 15 Oeste -- 1017.7 -0.8 85
2020-01-08 02:00:00 4.2 7 Oeste 12 Oeste -- 1017.8 -0.9 84
2020-01-08 01:00:00 4.7 7 Oeste 14 Sudoeste -- 1018.2 -0.7 82
2020-01-08 00:00:00 5.5 6 Oeste 14 Sudoeste -- 1018.5 -0.6 79
2020-01-07 23:00:00 5.3 3 Sur 10 Oeste -- 1018.7 0 84
2020-01-07 22:00:00 5.6 6 Oeste 10 Oeste -- 1018.9 1 84
2020-01-07 21:00:00 6.9 8 Sudoeste 10 Sudoeste -- 1019.1 1.7 80
2020-01-07 20:00:00 8.3 5 Sudoeste 9 Sudoeste -- 1018.7 1.4 74
2020-01-07 19:00:00 11.3 3 Sudeste 9 Nordeste -- 1017.9 0.5 61
2020-01-07 18:00:00 14.1 3 Nordeste 6 Sudeste -- 1017.4 -0.2 49
2020-01-07 17:00:00 17.6 4 Sudeste 10 Sudeste -- 1017.3 -1.5 35
2020-01-07 16:00:00 18.3 6 Sudeste 12 Sudeste -- 1017.4 -2.6 35
2020-01-07 15:00:00 17.5 9 Sudeste 16 Sudeste -- 1017.6 -3.4 40
2020-01-07 14:00:00 15.6 3 Este 9 Sudeste -- 1018.8 -2.7 49
2020-01-07 13:00:00 14 5 Sudeste 9 Sudeste -- 1020 -1.6 54
2020-01-07 12:00:00 11.6 4 Este 9 Sudoeste -- 1021 -0.1 57
2020-01-07 11:00:00 8.7 5 Sudoeste 9 Oeste -- 1021.5 1 64
2020-01-07 10:00:00 5.2 4 Oeste 9 Sudoeste -- 1021.6 1.1 78
2020-01-07 09:00:00 2.6 0 Calma 7 Sudoeste -- 1021.1 0.5 90
2020-01-07 08:00:00 2.6 3 Sudoeste 12 Oeste -- 1020.5 0.2 88
2020-01-07 07:00:00 2.6 7 Oeste 12 Oeste -- 1020.5 0.2 89
2020-01-07 06:00:00 3 2 Este 10 Sudoeste -- 1020.6 0.2 87
2020-01-07 05:00:00 4.4 5 Sudoeste 15 Oeste -- 1020.3 0 82
2020-01-07 04:00:00 3.8 6 Oeste 12 Oeste -- 1020.3 0.3 86
2020-01-07 03:00:00 4.4 7 Oeste 18 Sudoeste -- 1020.4 0.3 83
2020-01-07 02:00:00 4.6 5 Oeste 16 Oeste -- 1020.3 0.5 85
2020-01-07 01:00:00 5.5 11 Sudoeste 16 Sudoeste -- 1020 0.6 83
2020-01-07 00:00:00 5.8 8 Sudoeste 13 Sudoeste -- 1020.1 1.3 85
2020-01-06 23:00:00 6.3 9 Sudoeste 13 Sudoeste -- 1019.8 1.2 86
2020-01-06 22:00:00 6.7 7 Oeste 12 Oeste -- 1019.4 1.5 88
2020-01-06 21:00:00 7.8 6 Oeste 11 Sudoeste -- 1018.8 1.7 86
2020-01-06 20:00:00 9.3 8 Sudoeste 13 Oeste -- 1018.6 1.9 84
2020-01-06 19:00:00 10.8 5 Sudoeste 11 Nordeste -- 1017.9 1.2 76
2020-01-06 18:00:00 12.3 6 Nordeste 14 Norte -- 1017.1 0.5 71
2020-01-06 17:00:00 15.7 6 Norte 11 Norte -- 1016.7 -0.5 53
2020-01-06 16:00:00 17.3 5 Nordeste 10 Norte -- 1016.7 -1.8 42
2020-01-06 15:00:00 16.5 4 Nordeste 10 Este -- 1016.6 -2.9 48
2020-01-06 14:00:00 16.1 3 Sudoeste 12 Sudeste -- 1017.2 -2.6 49
2020-01-06 13:00:00 14.5 3 Sudeste 10 Sudoeste -- 1018.5 -1.3 56
2020-01-06 12:00:00 13.5 3 Sudoeste 12 Sur -- 1019.5 0 60
2020-01-06 11:00:00 10.8 0 Calma 4 Este -- 1019.8 0.8 76
2020-01-06 10:00:00 9.2 2 Este 4 Norte -- 1019.8 1.2 79